| time (UTC) | temp F | wind direction | speed knots | gust knots | rain 1hr in | rain 24hr in | rain mn in | humidity % | barometer mb |
| 20260507142610 | 83 | 17 | 1.7 | 2.6 | 0.00 | 0.00 | 0.00 | 60 | 1012.0 |
| 20260507141610 | 81 | 17 | 0.9 | 2.6 | 0.00 | 0.00 | 0.00 | 60 | 1012.0 |
| 20260507140609 | 82 | 17 | 0.9 | 2.6 | 0.00 | 0.00 | 0.00 | 60 | 1012.0 |
| 20260507135609 | 83 | 17 | 1.7 | 2.6 | 0.00 | 0.00 | 0.00 | 60 | 1012.0 |
| 20260507134608 | 81 | 17 | 0.9 | 2.6 | 0.00 | 0.00 | 0.00 | 63 | 1011.0 |
| 20260507133608 | 82 | 17 | 1.7 | 2.6 | 0.00 | 0.00 | 0.00 | 63 | 1011.0 |
| 20260507132608 | 78 | 63 | 0.9 | 0.9 | 0.00 | 0.00 | 0.00 | 69 | 1011.0 |
| 20260507131608 | 78 | 63 | 0.9 | 0.9 | 0.00 | 0.00 | 0.00 | 69 | 1011.0 |
| 20260507130607 | 79 | 63 | 0.9 | 1.7 | 0.00 | 0.00 | 0.00 | 69 | 1011.0 |
| 20260507125606 | 78 | 63 | 0.9 | 0.9 | 0.00 | 0.00 | 0.00 | 69 | 1011.0 |
| 20260507124606 | 78 | 63 | 0.9 | 0.9 | 0.00 | 0.00 | 0.00 | 69 | 1011.0 |
| 20260507123606 | 79 | 63 | 0.9 | 1.7 | 0.00 | 0.00 | 0.00 | 69 | 1011.0 |
| 20260507122605 | 75 | 89 | 0.9 | 2.6 | 0.00 | 0.00 | 0.00 | 73 | 1010.0 |
| 20260507121605 | 76 | 89 | 0.9 | 2.6 | 0.00 | 0.00 | 0.00 | 73 | 1010.0 |
| 20260507120605 | 77 | 89 | 0.9 | 2.6 | 0.00 | 0.00 | 0.00 | 73 | 1010.0 |
| 20260507115605 | 77 | 89 | 0.9 | 2.6 | 0.00 | 0.00 | 0.00 | 73 | 1010.0 |
| 20260507114604 | 75 | 121 | 0.9 | 2.6 | 0.00 | 0.00 | 0.00 | 74 | 1010.0 |
| 20260507113603 | 76 | 121 | 0.9 | 2.6 | 0.00 | 0.00 | 0.00 | 74 | 1010.0 |
| 20260507112603 | 77 | 121 | 1.7 | 2.6 | 0.00 | 0.00 | 0.00 | 74 | 1010.0 |
| 20260507111603 | 77 | 121 | 1.7 | 2.6 | 0.00 | 0.00 | 0.00 | 74 | 1010.0 |
| 20260507110603 | 75 | 121 | 0.9 | 2.6 | 0.00 | 0.00 | 0.00 | 74 | 1010.0 |
| 20260507105602 | 76 | 121 | 0.9 | 2.6 | 0.00 | 0.00 | 0.00 | 74 | 1010.0 |
| 20260507104602 | 77 | 121 | 1.7 | 2.6 | 0.00 | 0.00 | 0.00 | 74 | 1010.0 |
| 20260507103601 | 77 | 121 | 1.7 | 2.6 | 0.00 | 0.00 | 0.00 | 74 | 1010.0 |
| 20260507102601 | 75 | 141 | 0.9 | 3.5 | 0.00 | 0.00 | 0.00 | 74 | 1010.0 |
| 20260507101601 | 76 | 141 | 1.7 | 3.5 | 0.00 | 0.00 | 0.00 | 74 | 1010.0 |
| 20260507100601 | 75 | 141 | 0.9 | 3.5 | 0.00 | 0.00 | 0.00 | 74 | 1010.0 |
| 20260507095600 | 76 | 141 | 1.7 | 3.5 | 0.00 | 0.00 | 0.00 | 74 | 1010.0 |
| 20260507094600 | 75 | 141 | 0.9 | 3.5 | 0.00 | 0.00 | 0.00 | 73 | 1010.0 |
| 20260507093600 | 76 | 141 | 1.7 | 3.5 | 0.00 | 0.00 | 0.00 | 73 | 1010.0 |
| 20260507092559 | 75 | 151 | 0.9 | 3.5 | 0.00 | 0.00 | 0.00 | 72 | 1010.0 |
| 20260507091559 | 76 | 151 | 0.9 | 3.5 | 0.00 | 0.00 | 0.00 | 72 | 1010.0 |
| 20260507090559 | 77 | 151 | 0.9 | 3.5 | 0.00 | 0.00 | 0.00 | 72 | 1010.0 |
| 20260507085558 | 78 | 151 | 0.9 | 3.5 | 0.00 | 0.00 | 0.00 | 72 | 1010.0 |
| 20260507084558 | 75 | 151 | 0.9 | 3.5 | 0.00 | 0.00 | 0.00 | 70 | 1010.0 |
| 20260507083557 | 76 | 151 | 0.9 | 3.5 | 0.00 | 0.00 | 0.00 | 70 | 1010.0 |
| 20260507082557 | 77 | 267 | 0.0 | 0.9 | 0.00 | 0.00 | 0.00 | 70 | 1010.0 |
| 20260507081556 | 78 | 267 | 0.0 | 0.9 | 0.00 | 0.00 | 0.00 | 70 | 1010.0 |
| 20260507080556 | 79 | 267 | 0.0 | 0.9 | 0.00 | 0.00 | 0.00 | 70 | 1010.0 |
| 20260507075556 | 76 | 234 | 0.9 | 0.9 | 0.00 | 0.00 | 0.00 | 70 | 1010.0 |
| 20260507074555 | 77 | 234 | 0.9 | 0.9 | 0.00 | 0.00 | 0.00 | 70 | 1010.0 |
| 20260507073555 | 78 | 234 | 0.9 | 0.9 | 0.00 | 0.00 | 0.00 | 70 | 1010.0 |
| 20260507072554 | 79 | 234 | 1.7 | 1.7 | 0.00 | 0.00 | 0.00 | 70 | 1011.0 |
| 20260507071554 | 76 | 234 | 0.9 | 0.9 | 0.00 | 0.00 | 0.00 | 70 | 1011.0 |
| 20260507070554 | 77 | 234 | 0.9 | 0.9 | 0.00 | 0.00 | 0.00 | 70 | 1011.0 |
| 20260507065554 | 78 | 234 | 0.9 | 0.9 | 0.00 | 0.00 | 0.00 | 70 | 1011.0 |
| 20260507064553 | 79 | 234 | 0.9 | 0.9 | 0.00 | 0.00 | 0.00 | 70 | 1011.0 |
| 20260507063553 | 80 | 234 | 1.7 | 1.7 | 0.00 | 0.00 | 0.00 | 70 | 1011.0 |
| 20260507062553 | 77 | 232 | 0.9 | 0.9 | 0.00 | 0.00 | 0.00 | 68 | 1011.0 |
| 20260507061552 | 78 | 232 | 0.9 | 0.9 | 0.00 | 0.00 | 0.00 | 68 | 1011.0 |
| 20260507060552 | 79 | 232 | 0.9 | 0.9 | 0.00 | 0.00 | 0.00 | 68 | 1011.0 |
| 20260507055551 | 79 | 232 | 0.9 | 0.9 | 0.00 | 0.00 | 0.00 | 68 | 1011.0 |
| 20260507054551 | 80 | 232 | 1.7 | 1.7 | 0.00 | 0.00 | 0.00 | 68 | 1011.0 |
| 20260507053550 | 77 | 259 | 0.9 | 0.9 | 0.00 | 0.00 | 0.00 | 63 | 1011.0 |
| 20260507052550 | 78 | 259 | 0.9 | 0.9 | 0.00 | 0.00 | 0.00 | 63 | 1012.0 |
| 20260507051550 | 79 | 259 | 0.9 | 0.9 | 0.00 | 0.00 | 0.00 | 63 | 1012.0 |
| 20260507050549 | 80 | 259 | 0.9 | 0.9 | 0.00 | 0.00 | 0.00 | 63 | 1012.0 |
| 20260507045549 | 81 | 259 | 0.9 | 0.9 | 0.00 | 0.00 | 0.00 | 63 | 1012.0 |
| 20260507044548 | 81 | 259 | 0.9 | 0.9 | 0.00 | 0.00 | 0.00 | 63 | 1012.0 |
| 20260507043548 | 82 | 259 | 0.9 | 0.9 | 0.00 | 0.00 | 0.00 | 63 | 1012.0 |
| 20260507042548 | 83 | 259 | 1.7 | 1.7 | 0.00 | 0.00 | 0.00 | 63 | 1012.0 |
| 20260507041547 | 78 | 233 | 0.9 | 0.9 | 0.00 | 0.00 | 0.00 | 62 | 1012.0 |
| 20260507040547 | 79 | 233 | 0.9 | 0.9 | 0.00 | 0.00 | 0.00 | 62 | 1012.0 |
| 20260507035547 | 80 | 233 | 0.9 | 0.9 | 0.00 | 0.00 | 0.00 | 62 | 1012.0 |
| 20260507034546 | 81 | 233 | 0.9 | 0.9 | 0.00 | 0.00 | 0.00 | 62 | 1012.0 |
| 20260507033546 | 82 | 233 | 0.9 | 0.9 | 0.00 | 0.00 | 0.00 | 62 | 1012.0 |
| 20260507032546 | 83 | 233 | 0.9 | 0.9 | 0.00 | 0.00 | 0.00 | 62 | 1012.0 |
| 20260507031546 | 84 | 233 | 0.9 | 0.9 | 0.00 | 0.00 | 0.00 | 62 | 1012.0 |
| 20260507030545 | 78 | 219 | 0.9 | 2.6 | 0.00 | 0.00 | 0.00 | 62 | 1012.0 |
| 20260507025545 | 79 | 219 | 0.9 | 2.6 | 0.00 | 0.00 | 0.00 | 62 | 1011.0 |
| 20260507024545 | 80 | 219 | 0.9 | 2.6 | 0.00 | 0.00 | 0.00 | 62 | 1011.0 |
| 20260507023545 | 81 | 219 | 0.9 | 2.6 | 0.00 | 0.00 | 0.00 | 62 | 1011.0 |
| 20260507022544 | 82 | 219 | 0.9 | 2.6 | 0.00 | 0.00 | 0.00 | 62 | 1011.0 |
| 20260507021543 | 83 | 219 | 0.9 | 2.6 | 0.00 | 0.00 | 0.00 | 62 | 1011.0 |
| 20260507020543 | 79 | 214 | 4.3 | 7.0 | 0.00 | 0.00 | 0.00 | 41 | 1011.0 |
| 20260507015543 | 80 | 214 | 4.3 | 7.0 | 0.00 | 0.00 | 0.00 | 41 | 1010.0 |
| 20260507014542 | 81 | 214 | 4.3 | 7.0 | 0.00 | 0.00 | 0.00 | 41 | 1010.0 |
| 20260507013542 | 82 | 214 | 4.3 | 7.0 | 0.00 | 0.00 | 0.00 | 41 | 1010.0 |
| 20260507012541 | 83 | 214 | 4.3 | 7.0 | 0.00 | 0.00 | 0.00 | 41 | 1009.0 |
| 20260507011541 | 84 | 214 | 4.3 | 7.0 | 0.00 | 0.00 | 0.00 | 41 | 1009.0 |
| 20260507010541 | 85 | 214 | 4.3 | 7.0 | 0.00 | 0.00 | 0.00 | 41 | 1009.0 |
| 20260507005540 | 85 | 214 | 4.3 | 7.0 | 0.00 | 0.00 | 0.00 | 41 | 1009.0 |
| 20260507003540 | 86 | 214 | 5.2 | 7.0 | 0.00 | 0.00 | 0.00 | 41 | 1009.0 |
| 20260507002539 | 86 | 214 | 5.2 | 7.0 | 0.00 | 0.00 | 0.00 | 41 | 1009.0 |
| 20260507001539 | 80 | 180 | 3.5 | 0.0 | 0.00 | 0.00 | 0.00 | 36 | 1009.0 |
| 20260507000538 | 81 | 180 | 3.5 | 0.0 | 0.00 | 0.00 | 0.00 | 36 | 1009.0 |
| 20260506235538 | 82 | 180 | 3.5 | 0.0 | 0.00 | 0.00 | 0.00 | 36 | 1009.0 |
| 20260506234538 | 83 | 180 | 3.5 | 0.0 | 0.00 | 0.00 | 0.00 | 36 | 1009.0 |
| 20260506233538 | 84 | 180 | 3.5 | 0.0 | 0.00 | 0.00 | 0.00 | 36 | 1009.0 |
| 20260506232537 | 85 | 180 | 3.5 | 0.0 | 0.00 | 0.00 | 0.00 | 36 | 1008.0 |
| 20260506231537 | 85 | 180 | 3.5 | 0.0 | 0.00 | 0.00 | 0.00 | 36 | 1008.0 |
| 20260506230536 | 86 | 270 | 3.5 | 0.0 | 0.00 | 0.00 | 0.00 | 36 | 1008.0 |
| 20260506225536 | 87 | 270 | 3.5 | 0.0 | 0.00 | 0.00 | 0.00 | 36 | 1008.0 |
| 20260506224536 | 88 | 270 | 3.5 | 0.0 | 0.00 | 0.00 | 0.00 | 36 | 1008.0 |
| 20260506223535 | 89 | 270 | 3.5 | 0.0 | 0.00 | 0.00 | 0.00 | 36 | 1008.0 |
| 20260506222535 | 90 | 270 | 3.5 | 0.0 | 0.00 | 0.00 | 0.00 | 36 | 1007.0 |
| 20260506221535 | 91 | 270 | 3.5 | 0.0 | 0.00 | 0.00 | 0.00 | 36 | 1007.0 |
| 20260506220534 | 92 | 180 | 3.5 | 0.0 | 0.00 | 0.00 | 0.00 | 36 | 1007.0 |
| 20260506215534 | 93 | 180 | 3.5 | 0.0 | 0.00 | 0.00 | 0.00 | 36 | 1007.0 |
| 20260506214534 | 94 | 180 | 3.5 | 0.0 | 0.00 | 0.00 | 0.00 | 36 | 1007.0 |
| 20260506213533 | 94 | 180 | 3.5 | 0.0 | 0.00 | 0.00 | 0.00 | 36 | 1007.0 |
| 20260506212533 | 86 | 180 | 4.3 | 0.0 | 0.00 | 0.00 | 0.00 | 36 | 1007.0 |
| 20260506211532 | 87 | 180 | 5.2 | 0.0 | 0.00 | 0.00 | 0.00 | 36 | 1007.0 |
| 20260506210532 | 87 | 180 | 5.2 | 0.0 | 0.00 | 0.00 | 0.00 | 36 | 1007.0 |
| 20260506205532 | 88 | 180 | 5.2 | 0.0 | 0.00 | 0.00 | 0.00 | 36 | 1007.0 |
| 20260506204532 | 89 | 180 | 5.2 | 0.0 | 0.00 | 0.00 | 0.00 | 36 | 1007.0 |
| 20260506203531 | 90 | 180 | 5.2 | 0.0 | 0.00 | 0.00 | 0.00 | 36 | 1007.0 |
| 20260506202530 | 91 | 180 | 5.2 | 0.0 | 0.00 | 0.00 | 0.00 | 36 | 1008.0 |
| 20260506201529 | 92 | 190 | 4.3 | 0.0 | 0.00 | 0.00 | 0.00 | 36 | 1008.0 |
| 20260506200529 | 93 | 190 | 5.2 | 0.0 | 0.00 | 0.00 | 0.00 | 36 | 1008.0 |
| 20260506195529 | 94 | 190 | 5.2 | 0.0 | 0.00 | 0.00 | 0.00 | 36 | 1008.0 |
| 20260506194529 | 95 | 190 | 5.2 | 0.0 | 0.00 | 0.00 | 0.00 | 36 | 1008.0 |
| 20260506193528 | 95 | 190 | 5.2 | 0.0 | 0.00 | 0.00 | 0.00 | 36 | 1008.0 |
| 20260506192528 | 96 | 190 | 5.2 | 0.0 | 0.00 | 0.00 | 0.00 | 36 | 1009.0 |
| 20260506191528 | 90 | 190 | 3.5 | 0.0 | 0.00 | 0.00 | 0.00 | 41 | 1009.0 |
| 20260506190527 | 90 | 190 | 3.5 | 0.0 | 0.00 | 0.00 | 0.00 | 41 | 1009.0 |
| 20260506185527 | 91 | 190 | 3.5 | 0.0 | 0.00 | 0.00 | 0.00 | 41 | 1009.0 |
| 20260506183526 | 92 | 190 | 3.5 | 0.0 | 0.00 | 0.00 | 0.00 | 41 | 1009.0 |
| 20260506182526 | 93 | 190 | 3.5 | 0.0 | 0.00 | 0.00 | 0.00 | 41 | 1010.0 |
| 20260506181526 | 94 | 190 | 3.5 | 0.0 | 0.00 | 0.00 | 0.00 | 41 | 1010.0 |
| 20260506180525 | 90 | 350 | 3.5 | 0.0 | 0.00 | 0.00 | 0.00 | 43 | 1010.0 |
| 20260506175525 | 91 | 350 | 3.5 | 0.0 | 0.00 | 0.00 | 0.00 | 43 | 1010.0 |
| 20260506174524 | 92 | 350 | 3.5 | 0.0 | 0.00 | 0.00 | 0.00 | 43 | 1010.0 |
| 20260506173524 | 93 | 350 | 3.5 | 0.0 | 0.00 | 0.00 | 0.00 | 43 | 1011.0 |
| 20260506172524 | 93 | 350 | 3.5 | 0.0 | 0.00 | 0.00 | 0.00 | 43 | 1011.0 |
| 20260506171523 | 90 | 350 | 3.5 | 0.0 | 0.00 | 0.00 | 0.00 | 46 | 1011.0 |
| 20260506170523 | 91 | 100 | 3.5 | 0.0 | 0.00 | 0.00 | 0.00 | 46 | 1011.0 |
| 20260506165522 | 90 | 100 | 3.5 | 0.0 | 0.00 | 0.00 | 0.00 | 46 | 1011.0 |
| 20260506164522 | 91 | 100 | 3.5 | 0.0 | 0.00 | 0.00 | 0.00 | 46 | 1011.0 |
| 20260506163521 | 90 | 100 | 3.5 | 0.0 | 0.00 | 0.00 | 0.00 | 46 | 1011.0 |
| 20260506162521 | 91 | 100 | 3.5 | 0.0 | 0.00 | 0.00 | 0.00 | 46 | 1011.0 |
| 20260506161521 | 88 | 100 | 3.5 | 0.0 | 0.00 | 0.00 | 0.00 | 51 | 1011.0 |
| 20260506160520 | 89 | 100 | 3.5 | 0.0 | 0.00 | 0.00 | 0.00 | 51 | 1011.0 |
| 20260506155520 | 88 | 100 | 3.5 | 0.0 | 0.00 | 0.00 | 0.00 | 51 | 1011.0 |
| 20260506154520 | 89 | 100 | 3.5 | 0.0 | 0.00 | 0.00 | 0.00 | 51 | 1011.0 |
| 20260506153519 | 88 | 100 | 3.5 | 0.0 | 0.00 | 0.00 | 0.00 | 51 | 1011.0 |
| 20260506152519 | 89 | 100 | 3.5 | 0.0 | 0.00 | 0.00 | 0.00 | 51 | 1011.0 |
| 20260506151519 | 85 | 0 | 0.0 | 0.0 | 0.00 | 0.00 | 0.00 | 62 | 1011.0 |
| 20260506150518 | 85 | 0 | 0.0 | 0.0 | 0.00 | 0.00 | 0.00 | 62 | 1011.0 |
| 20260506145518 | 85 | 0 | 0.0 | 0.0 | 0.00 | 0.00 | 0.00 | 62 | 1011.0 |
| 20260506144518 | 85 | 0 | 0.0 | 0.0 | 0.00 | 0.00 | 0.00 | 62 | 1011.0 |